Time;durP1;ratioP1;P1;durP2;ratioP2;P2;SDS_P1;SDS_P2;PMS_P1;PMS_P2;Temp;Humidity;BMP_temperature;BMP_pressure;BME280_temperature;BME280_humidity;BME280_pressure;Samples;Min_cycle;Max_cycle;Signal;HPM_P1;HPM_P2
2022/11/27 00:01:46;;;;;;;;;;;;;;;4.60;100.00;102385.56;5049216;28;20014;-75
2022/11/27 00:04:12;;;;;;;;;;;;;;;4.62;100.00;102385.53;5064392;28;19933;-74
2022/11/27 00:06:38;;;;;;;;;;;;;;;4.64;100.00;102380.31;5064982;28;19955;-74
2022/11/27 00:09:04;;;;;;;;;;;;;;;4.64;100.00;102378.59;5063949;28;19954;-75
2022/11/27 00:11:30;;;;;;;;;;;;;;;4.64;100.00;102370.72;5053210;28;19928;-75
2022/11/27 00:13:56;;;;;;;;;;;;;;;4.65;100.00;102369.84;5053271;28;20332;-75
2022/11/27 00:16:22;;;;;;;;;;;;;;;4.64;100.00;102369.81;5065623;28;19928;-75
2022/11/27 00:18:47;;;;;;;;;;;;;;;4.62;100.00;102369.81;5052713;28;19924;-75
2022/11/27 00:21:17;;;;;;;;;;;;;;;4.61;100.00;102373.31;5031305;28;20037;-75
2022/11/27 00:23:46;;;;;;;;;;;;;;;4.59;100.00;102375.06;5047421;28;19951;-75
2022/11/27 00:26:11;;;;;;;;;;;;;;;4.57;100.00;102369.78;5069606;28;19978;-75
2022/11/27 00:28:37;;;;;;;;;;;;;;;4.56;100.00;102382.91;5065103;28;20460;-75
2022/11/27 00:31:04;;;;;;;;;;;;;;;4.54;100.00;102371.53;5065442;28;20509;-75
2022/11/27 00:33:29;;;;;;;;;;;;;;;4.52;100.00;102368.03;5065423;28;19925;-75
2022/11/27 00:35:55;;;;;;;;;;;;;;;4.50;100.00;102368.00;5065304;28;19935;-75
2022/11/27 00:38:20;;;;;;;;;;;;;;;4.48;100.00;102362.75;5066405;28;19932;-75
2022/11/27 00:40:46;;;;;;;;;;;;;;;4.46;100.00;102356.63;5064702;28;20414;-75
2022/11/27 00:43:11;;;;;;;;;;;;;;;4.45;100.00;102349.66;5065079;28;19928;-75
2022/11/27 00:45:37;;;;;;;;;;;;;;;4.43;100.00;102348.78;5052141;28;20037;-75
2022/11/27 00:48:02;;;;;;;;;;;;;;;4.42;100.00;102341.75;5064536;28;19943;-76
2022/11/27 00:50:30;;;;;;;;;;;;;;;4.40;100.00;102337.38;5065276;28;19939;-75
2022/11/27 00:52:56;;;;;;;;;;;;;;;4.39;100.00;102343.47;5052588;28;19963;-75
2022/11/27 00:55:21;;;;;;;;;;;;;;;4.38;100.00;102342.63;5065727;28;20526;-76
2022/11/27 00:57:47;;;;;;;;;;;;;;;4.37;100.00;102338.25;5064063;28;20566;-75
2022/11/27 01:00:12;;;;;;;;;;;;;;;4.36;100.00;102333.84;5050987;28;20382;-75
2022/11/27 01:02:38;;;;;;;;;;;;;;;4.36;100.00;102341.72;5064146;28;19933;-75
2022/11/27 01:05:03;;;;;;;;;;;;;;;4.35;100.00;102345.22;5063420;28;20306;-75
2022/11/27 01:07:29;;;;;;;;;;;;;;;4.34;100.00;102338.22;5046728;28;20485;-75
2022/11/27 01:09:54;;;;;;;;;;;;;;;4.34;100.00;102344.34;5064485;28;19928;-75
2022/11/27 01:12:20;;;;;;;;;;;;;;;4.33;100.00;102352.19;5065137;28;19993;-75
2022/11/27 01:14:45;;;;;;;;;;;;;;;4.32;100.00;102346.06;5062775;28;20603;-75
2022/11/27 01:17:10;;;;;;;;;;;;;;;4.32;100.00;102342.59;5063717;28;20542;-75
2022/11/27 01:19:36;;;;;;;;;;;;;;;4.32;100.00;102342.59;5065688;28;20004;-75
2022/11/27 01:22:01;;;;;;;;;;;;;;;4.32;100.00;102338.19;5064320;28;19974;-75
2022/11/27 01:24:27;;;;;;;;;;;;;;;4.33;100.00;102331.22;5063658;28;20062;-75
2022/11/27 01:26:52;;;;;;;;;;;;;;;4.32;100.00;102314.59;5065567;28;20462;-75
2022/11/27 01:29:17;;;;;;;;;;;;;;;4.34;100.00;102317.25;5064189;28;19983;-75
2022/11/27 01:31:43;;;;;;;;;;;;;;;4.34;100.00;102306.75;5064662;28;20409;-76
2022/11/27 01:34:12;;;;;;;;;;;;;;;4.34;100.00;102301.50;5051025;28;19928;-75
2022/11/27 01:36:37;;;;;;;;;;;;;;;4.34;100.00;102301.50;5038975;28;20422;-75
2022/11/27 01:39:03;;;;;;;;;;;;;;;4.35;100.00;102298.91;5064553;28;19937;-75
2022/11/27 01:41:32;;;;;;;;;;;;;;;4.38;100.00;102291.91;5062468;28;20561;-76
2022/11/27 01:44:18;;;;;;;;;;;;;;;4.39;100.00;102283.16;5063645;28;19928;-75
2022/11/27 01:46:45;;;;;;;;;;;;;;;4.40;100.00;102285.78;5045748;28;19932;-75
2022/11/27 01:49:10;;;;;;;;;;;;;;;4.42;100.00;102276.19;5063336;28;19931;-75
2022/11/27 01:51:39;;;;;;;;;;;;;;;4.45;100.00;102275.31;5064143;28;19928;-75
2022/11/27 01:54:05;;;;;;;;;;;;;;;4.48;100.00;102268.31;5064170;28;19920;-75
2022/11/27 01:56:30;;;;;;;;;;;;;;;4.48;100.00;102268.31;5045669;28;19930;-75
2022/11/27 01:58:56;;;;;;;;;;;;;;;4.49;100.00;102262.22;5061969;28;19920;-75
2022/11/27 02:01:23;;;;;;;;;;;;;;;4.51;100.00;102264.00;5062908;28;19924;-75
2022/11/27 02:03:48;;;;;;;;;;;;;;;4.51;100.00;102251.72;5065259;28;19938;-75
2022/11/27 02:06:14;;;;;;;;;;;;;;;4.51;100.00;102245.63;5063908;28;19936;-75
2022/11/27 02:08:40;;;;;;;;;;;;;;;4.51;100.00;102222.03;5062898;28;19986;-75
2022/11/27 02:11:08;;;;;;;;;;;;;;;4.51;100.00;102216.78;5045316;28;20344;-75
2022/11/27 02:13:36;;;;;;;;;;;;;;;4.49;100.00;102206.28;5063472;28;19954;-76
2022/11/27 02:16:04;;;;;;;;;;;;;;;4.48;100.00;102205.38;5037720;28;19982;-75
2022/11/27 02:18:36;;;;;;;;;;;;;;;4.48;100.00;102213.25;5062925;28;19928;-75
2022/11/27 02:21:12;;;;;;;;;;;;;;;4.48;100.00;102212.41;5062955;28;19928;-75
2022/11/27 02:23:41;;;;;;;;;;;;;;;4.49;100.00;102208.88;5050622;28;20086;-75
2022/11/27 02:26:13;;;;;;;;;;;;;;;4.48;100.00;102201.91;5050695;28;19928;-75
2022/11/27 02:28:57;;;;;;;;;;;;;;;4.48;100.00;102194.88;5062790;28;20142;-75
2022/11/27 02:31:41;;;;;;;;;;;;;;;4.49;100.00;102195.78;5063224;28;20318;-75
2022/11/27 02:34:13;;;;;;;;;;;;;;;4.50;100.00;102179.16;5062310;28;19924;-75
2022/11/27 02:36:38;;;;;;;;;;;;;;;4.52;100.00;102182.66;5063082;28;19982;-75
2022/11/27 02:39:04;;;;;;;;;;;;;;;4.52;100.00;102179.19;5062543;28;19958;-75
2022/11/27 02:41:36;;;;;;;;;;;;;;;4.51;100.00;102185.31;5062958;28;19924;-75
2022/11/27 02:44:04;;;;;;;;;;;;;;;4.53;100.00;102191.41;5051327;28;19959;-75
2022/11/27 02:46:29;;;;;;;;;;;;;;;4.53;100.00;102183.53;5049923;28;19924;-76
2022/11/27 02:48:56;;;;;;;;;;;;;;;4.52;100.00;102189.66;5061804;28;20041;-75
2022/11/27 02:51:26;;;;;;;;;;;;;;;4.52;100.00;102190.53;5062877;28;19935;-75
2022/11/27 02:53:56;;;;;;;;;;;;;;;4.52;100.00;102200.16;5062959;28;19928;-75
2022/11/27 02:56:22;;;;;;;;;;;;;;;4.52;100.00;102200.16;5062877;28;19920;-75
2022/11/27 02:58:47;;;;;;;;;;;;;;;4.52;100.00;102200.16;5062885;28;19932;-76
2022/11/27 03:01:13;;;;;;;;;;;;;;;4.51;100.00;102188.78;5031236;28;20406;-75
2022/11/27 03:03:42;;;;;;;;;;;;;;;4.53;100.00;102196.66;5062696;28;19928;-75
2022/11/27 03:06:09;;;;;;;;;;;;;;;4.51;100.00;102201.91;5063044;28;20375;-75
2022/11/27 03:08:40;;;;;;;;;;;;;;;4.52;100.00;102197.53;5062267;28;20426;-75
2022/11/27 03:11:12;;;;;;;;;;;;;;;4.51;100.00;102194.03;5062478;28;19924;-75
2022/11/27 03:13:39;;;;;;;;;;;;;;;4.52;100.00;102190.53;5064327;28;21536;-75
2022/11/27 03:16:34;;;;;;;;;;;;;;;4.53;100.00;102204.53;5061448;28;20394;-75
2022/11/27 03:19:03;;;;;;;;;;;;;;;4.52;100.00;102200.16;5035463;28;19936;-75
2022/11/27 03:21:31;;;;;;;;;;;;;;;4.51;100.00;102193.16;5066426;28;20548;-75
2022/11/27 03:23:56;;;;;;;;;;;;;;;4.49;100.00;102191.38;5066427;28;20635;-75
2022/11/27 03:26:22;;;;;;;;;;;;;;;4.49;100.00;102180.03;5031938;28;19944;-75
2022/11/27 03:28:47;;;;;;;;;;;;;;;4.47;100.00;102177.41;5066635;28;19928;-75
2022/11/27 03:31:13;;;;;;;;;;;;;;;4.46;100.00;102173.03;5066323;28;19924;-75
2022/11/27 03:33:38;;;;;;;;;;;;;;;4.45;100.00;102175.66;5067693;28;19936;-75
2022/11/27 03:36:11;;;;;;;;;;;;;;;4.43;100.00;102169.53;5053390;28;19950;-75
2022/11/27 03:38:37;;;;;;;;;;;;;;;4.41;100.00;102166.91;5065651;28;20013;-75
2022/11/27 03:41:04;;;;;;;;;;;;;;;4.40;100.00;102169.56;5067563;28;20018;-75
2022/11/27 03:43:31;;;;;;;;;;;;;;;4.39;100.00;102173.00;5047911;28;19920;-75
2022/11/27 03:45:58;;;;;;;;;;;;;;;4.38;100.00;102159.03;5049248;28;21783;-75
2022/11/27 03:48:26;;;;;;;;;;;;;;;4.37;100.00;102157.31;5065869;28;20020;-75
2022/11/27 03:51:01;;;;;;;;;;;;;;;4.36;100.00;102147.66;5067714;28;19936;-75
2022/11/27 03:53:29;;;;;;;;;;;;;;;4.36;100.00;102145.03;5067067;28;19928;-75
2022/11/27 03:56:14;;;;;;;;;;;;;;;4.34;100.00;102142.44;5066459;28;19928;-75
2022/11/27 03:58:44;;;;;;;;;;;;;;;4.32;100.00;102140.69;5066049;28;20485;-75
2022/11/27 04:01:11;;;;;;;;;;;;;;;4.31;100.00;102131.06;5065733;28;20607;-75
2022/11/27 04:03:36;;;;;;;;;;;;;;;4.29;100.00;102131.06;5065913;28;19955;-75
2022/11/27 04:06:02;;;;;;;;;;;;;;;4.29;100.00;102130.16;5065928;28;20042;-75
2022/11/27 04:08:27;;;;;;;;;;;;;;;4.29;100.00;102132.78;5065255;28;20306;-75
2022/11/27 04:10:53;;;;;;;;;;;;;;;4.29;100.00;102140.66;5051413;28;19959;-75
2022/11/27 04:13:18;;;;;;;;;;;;;;;4.29;100.00;102135.41;5065808;28;19966;-75
2022/11/27 04:15:44;;;;;;;;;;;;;;;4.29;100.00;102135.41;5066918;28;19939;-75
2022/11/27 04:18:09;;;;;;;;;;;;;;;4.28;100.00;102138.91;5065514;28;20176;-75
2022/11/27 04:20:34;;;;;;;;;;;;;;;4.27;100.00;102145.03;5048758;28;20024;-75
2022/11/27 04:23:00;;;;;;;;;;;;;;;4.28;100.00;102134.56;5066762;28;19936;-75
2022/11/27 04:25:25;;;;;;;;;;;;;;;4.28;100.00;102125.81;5065375;28;20407;-75
2022/11/27 04:27:51;;;;;;;;;;;;;;;4.28;100.00;102129.31;5065154;28;20129;-75
2022/11/27 04:30:16;;;;;;;;;;;;;;;4.28;100.00;102131.94;5063815;28;19925;-75
2022/11/27 04:32:41;;;;;;;;;;;;;;;4.27;100.00;102127.56;5065247;28;19931;-74
2022/11/27 04:35:07;;;;;;;;;;;;;;;4.28;100.00;102125.81;5065575;28;19928;-74
2022/11/27 04:37:32;;;;;;;;;;;;;;;4.28;100.00;102126.69;5066248;28;19929;-74
2022/11/27 04:39:58;;;;;;;;;;;;;;;4.29;100.00;102127.53;5064544;28;19928;-75
2022/11/27 04:42:23;;;;;;;;;;;;;;;4.29;100.00;102119.69;5065115;28;19928;-74
2022/11/27 04:44:49;;;;;;;;;;;;;;;4.30;100.00;102124.94;5064570;28;20470;-75
2022/11/27 04:47:14;;;;;;;;;;;;;;;4.30;100.00;102126.69;5064967;28;19928;-74
2022/11/27 04:49:40;;;;;;;;;;;;;;;4.30;100.00;102145.06;5064379;28;19932;-74
2022/11/27 04:52:05;;;;;;;;;;;;;;;4.30;100.00;102132.81;5066014;28;19934;-74
2022/11/27 04:54:30;;;;;;;;;;;;;;;4.32;100.00;102124.94;5066118;28;19925;-75
2022/11/27 04:56:56;;;;;;;;;;;;;;;4.32;100.00;102125.81;5052394;28;19925;-75
2022/11/27 04:59:22;;;;;;;;;;;;;;;4.34;100.00;102123.19;5064694;28;19932;-74
2022/11/27 05:01:47;;;;;;;;;;;;;;;4.33;100.00;102118.81;5080081;28;19916;-74
2022/11/27 05:04:12;;;;;;;;;;;;;;;4.34;100.00;102112.69;5063164;28;20306;-75
2022/11/27 05:06:38;;;;;;;;;;;;;;;4.33;100.00;102113.56;5065096;28;19935;-75
2022/11/27 05:09:03;;;;;;;;;;;;;;;4.33;100.00;102118.81;5064102;28;19924;-75
2022/11/27 05:11:29;;;;;;;;;;;;;;;4.34;100.00;102117.94;5064724;27;19928;-74
2022/11/27 05:16:39;;;;;;;;;;;;;;;4.35;100.00;102103.97;5064576;27;19928;-75
2022/11/27 05:19:05;;;;;;;;;;;;;;;4.35;100.00;102103.97;5064367;28;19958;-74
2022/11/27 05:21:30;;;;;;;;;;;;;;;4.34;100.00;102095.25;5063545;28;20421;-74
2022/11/27 05:23:55;;;;;;;;;;;;;;;4.34;100.00;102102.22;5064834;28;19980;-75
2022/11/27 05:26:21;;;;;;;;;;;;;;;4.34;100.00;102099.59;5064561;28;19932;-75
2022/11/27 05:28:49;;;;;;;;;;;;;;;4.34;100.00;102096.97;5049545;28;21673;-74
2022/11/27 05:31:14;;;;;;;;;;;;;;;4.34;100.00;102102.22;5064670;28;19940;-75
2022/11/27 05:33:40;;;;;;;;;;;;;;;4.34;100.00;102096.97;5071548;28;19975;-74
2022/11/27 05:36:05;;;;;;;;;;;;;;;4.35;100.00;102096.09;5064249;28;20383;-75
2022/11/27 05:38:33;;;;;;;;;;;;;;;4.35;100.00;102088.22;5065204;28;21548;-74
2022/11/27 05:40:59;;;;;;;;;;;;;;;4.35;100.00;102096.09;5063504;28;19939;-74
2022/11/27 05:43:24;;;;;;;;;;;;;;;4.34;100.00;102095.25;5064929;28;21485;-75
2022/11/27 05:45:50;;;;;;;;;;;;;;;4.35;100.00;102098.72;5064693;28;19938;-74
2022/11/27 05:48:15;;;;;;;;;;;;;;;4.34;100.00;102090.00;5065105;28;20026;-75
2022/11/27 05:50:40;;;;;;;;;;;;;;;4.34;100.00;102095.25;5050747;28;19939;-75
2022/11/27 05:53:06;;;;;;;;;;;;;;;4.35;100.00;102098.72;5064857;28;20705;-75
2022/11/27 05:55:31;;;;;;;;;;;;;;;4.36;100.00;102092.59;5064131;28;19974;-74
2022/11/27 05:57:56;;;;;;;;;;;;;;;4.35;100.00;102096.09;5063572;28;20371;-74
2022/11/27 06:00:22;;;;;;;;;;;;;;;4.36;100.00;102092.59;5063985;28;19928;-75
2022/11/27 06:02:47;;;;;;;;;;;;;;;4.35;100.00;102090.84;5050883;28;19924;-74
2022/11/27 06:05:13;;;;;;;;;;;;;;;4.36;100.00;102089.97;5064562;28;21585;-75
2022/11/27 06:07:38;;;;;;;;;;;;;;;4.37;100.00;102081.25;5063674;28;19928;-74
2022/11/27 06:10:04;;;;;;;;;;;;;;;4.38;100.00;102080.38;5050319;28;19924;-75
2022/11/27 06:12:32;;;;;;;;;;;;;;;4.39;100.00;102090.00;5063475;28;19930;-74
2022/11/27 06:14:58;;;;;;;;;;;;;;;4.39;100.00;102091.72;5063446;28;19935;-74
2022/11/27 06:17:23;;;;;;;;;;;;;;;4.39;100.00;102087.38;5064565;28;19936;-74
2022/11/27 06:19:50;;;;;;;;;;;;;;;4.39;100.00;102079.50;5063119;28;20442;-74
2022/11/27 06:22:15;;;;;;;;;;;;;;;4.40;100.00;102075.16;5063596;28;20378;-74
2022/11/27 06:24:41;;;;;;;;;;;;;;;4.39;100.00;102076.88;5062932;28;19963;-74
2022/11/27 06:27:06;;;;;;;;;;;;;;;4.39;100.00;102069.00;5046385;28;19931;-74
2022/11/27 06:29:31;;;;;;;;;;;;;;;4.40;100.00;102070.75;5063184;28;19981;-75
2022/11/27 06:31:57;;;;;;;;;;;;;;;4.40;100.00;102068.13;5064450;28;20391;-74
2022/11/27 06:34:22;;;;;;;;;;;;;;;4.41;100.00;102069.03;5064618;28;20410;-75
2022/11/27 06:36:49;;;;;;;;;;;;;;;4.41;100.00;102071.63;5062957;28;19932;-75
2022/11/27 06:39:14;;;;;;;;;;;;;;;4.41;100.00;102071.63;5062954;28;19930;-74
2022/11/27 06:41:40;;;;;;;;;;;;;;;4.42;100.00;102069.00;5064802;28;19928;-74
2022/11/27 06:44:05;;;;;;;;;;;;;;;4.43;100.00;102069.88;5064040;28;19931;-75
2022/11/27 06:46:31;;;;;;;;;;;;;;;4.43;100.00;102060.28;5064188;28;19954;-74
2022/11/27 06:48:56;;;;;;;;;;;;;;;4.43;100.00;102057.66;5062966;28;19932;-74
2022/11/27 06:51:23;;;;;;;;;;;;;;;4.43;100.00;102065.53;5050332;28;20016;-75
2022/11/27 06:53:48;;;;;;;;;;;;;;;4.43;100.00;102065.53;5062501;28;20352;-74
2022/11/27 06:56:14;;;;;;;;;;;;;;;4.44;100.00;102061.13;5064825;28;19924;-75
2022/11/27 06:58:40;;;;;;;;;;;;;;;4.43;100.00;102062.00;5062685;28;19975;-75
2022/11/27 07:01:06;;;;;;;;;;;;;;;4.43;100.00;102056.78;5062454;28;20375;-75
2022/11/27 07:03:34;;;;;;;;;;;;;;;4.42;100.00;102053.25;5062906;28;19924;-74
2022/11/27 07:06:01;;;;;;;;;;;;;;;4.43;100.00;102049.78;5051478;28;20454;-74
2022/11/27 07:08:26;;;;;;;;;;;;;;;4.42;100.00;102040.16;5049502;28;19928;-74
2022/11/27 07:10:52;;;;;;;;;;;;;;;4.42;100.00;102042.78;5062646;28;20371;-75
2022/11/27 07:13:17;;;;;;;;;;;;;;;4.42;100.00;102031.44;5061248;28;19982;-74
2022/11/27 07:15:42;;;;;;;;;;;;;;;4.42;100.00;102042.78;5066843;28;20374;-75
2022/11/27 07:18:08;;;;;;;;;;;;;;;4.42;100.00;102041.91;5053770;28;20430;-75
2022/11/27 07:20:34;;;;;;;;;;;;;;;4.42;100.00;102031.44;5063590;28;19928;-75
2022/11/27 07:22:59;;;;;;;;;;;;;;;4.41;100.00;102030.53;5063025;28;20061;-75
2022/11/27 07:25:24;;;;;;;;;;;;;;;4.41;100.00;102025.28;5066670;28;19928;-74
2022/11/27 07:27:50;;;;;;;;;;;;;;;4.42;100.00;102020.94;5062027;28;19931;-74
2022/11/27 07:30:15;;;;;;;;;;;;;;;4.42;100.00;102027.03;5061210;28;19928;-75
2022/11/27 07:32:40;;;;;;;;;;;;;;;4.41;100.00;102022.66;5062301;28;20379;-74
2022/11/27 07:35:06;;;;;;;;;;;;;;;4.42;100.00;102019.16;5061595;28;19951;-74
2022/11/27 07:37:32;;;;;;;;;;;;;;;4.42;100.00;102018.31;5062229;28;20421;-75
2022/11/27 07:39:57;;;;;;;;;;;;;;;4.43;100.00;102023.56;5061857;28;20031;-74
2022/11/27 07:42:22;;;;;;;;;;;;;;;4.43;100.00;102013.06;5061880;28;19929;-74
2022/11/27 07:44:48;;;;;;;;;;;;;;;4.45;100.00;102020.91;5061969;28;20038;-75
2022/11/27 07:47:13;;;;;;;;;;;;;;;4.45;100.00;102006.06;5049107;28;20391;-75
2022/11/27 07:49:39;;;;;;;;;;;;;;;4.45;100.00;102000.81;5061487;28;20138;-75
2022/11/27 07:52:04;;;;;;;;;;;;;;;4.47;100.00;102003.44;5061883;28;19924;-75
2022/11/27 07:54:30;;;;;;;;;;;;;;;4.47;100.00;102006.94;5035179;28;19935;-75
2022/11/27 07:56:55;;;;;;;;;;;;;;;4.48;100.00;102007.81;5061476;28;21373;-75
2022/11/27 07:59:21;;;;;;;;;;;;;;;4.49;100.00;102018.28;5062131;28;19935;-75
2022/11/27 08:01:46;;;;;;;;;;;;;;;4.49;100.00;102013.03;5062211;28;20717;-75
2022/11/27 08:04:12;;;;;;;;;;;;;;;4.52;100.00;102011.31;5061951;28;20010;-74
2022/11/27 08:06:37;;;;;;;;;;;;;;;4.52;100.00;102016.56;5064354;28;19932;-74
2022/11/27 08:09:03;;;;;;;;;;;;;;;4.53;100.00;102007.81;5052279;28;19963;-75
2022/11/27 08:11:31;;;;;;;;;;;;;;;4.54;100.00;102009.53;5052428;28;21512;-75
2022/11/27 08:13:58;;;;;;;;;;;;;;;4.55;100.00;102003.41;5048233;28;19935;-74
2022/11/27 08:16:23;;;;;;;;;;;;;;;4.54;100.00;102005.19;5052969;28;21531;-75
2022/11/27 08:18:48;;;;;;;;;;;;;;;4.55;100.00;101996.44;5066422;28;20036;-75
2022/11/27 08:21:14;;;;;;;;;;;;;;;4.55;100.00;102006.94;5065762;28;19967;-74
2022/11/27 08:23:39;;;;;;;;;;;;;;;4.56;100.00;101997.28;5063899;28;19924;-75
2022/11/27 08:26:06;;;;;;;;;;;;;;;4.57;100.00;101988.56;5065218;28;20019;-74
2022/11/27 08:28:34;;;;;;;;;;;;;;;4.57;100.00;101983.34;5062864;28;19934;-76
2022/11/27 08:31:00;;;;;;;;;;;;;;;4.57;100.00;101992.06;5049542;28;19950;-76
2022/11/27 08:33:25;;;;;;;;;;;;;;;4.57;100.00;101999.06;5046283;28;19958;-74
2022/11/27 08:35:51;;;;;;;;;;;;;;;4.56;100.00;102003.44;5065278;28;20286;-74
2022/11/27 08:38:16;;;;;;;;;;;;;;;4.56;100.00;101990.31;5066924;28;19977;-74
2022/11/27 08:40:42;;;;;;;;;;;;;;;4.55;100.00;101985.06;5063975;28;20015;-74
2022/11/27 08:43:07;;;;;;;;;;;;;;;4.54;100.00;101981.59;5065245;28;20011;-75
2022/11/27 08:45:32;;;;;;;;;;;;;;;4.53;100.00;101976.34;5064040;28;19960;-75
2022/11/27 08:47:58;;;;;;;;;;;;;;;4.51;100.00;101984.19;5065865;28;19951;-75
2022/11/27 08:50:23;;;;;;;;;;;;;;;4.52;100.00;101974.59;5065082;28;20308;-75
2022/11/27 08:52:49;;;;;;;;;;;;;;;4.49;100.00;101972.84;5063463;28;19928;-76
2022/11/27 08:55:14;;;;;;;;;;;;;;;4.47;100.00;101978.09;5065124;28;20005;-76
2022/11/27 08:57:39;;;;;;;;;;;;;;;4.46;100.00;101984.22;5065143;28;19931;-76
2022/11/27 09:00:05;;;;;;;;;;;;;;;4.44;100.00;101983.34;5051126;28;19951;-76
2022/11/27 09:02:31;;;;;;;;;;;;;;;4.44;100.00;101985.97;5063483;28;20417;-76
2022/11/27 09:04:57;;;;;;;;;;;;;;;4.44;100.00;101983.34;5064751;28;19924;-76
2022/11/27 09:07:22;;;;;;;;;;;;;;;4.44;100.00;101983.34;5046791;28;19932;-76
2022/11/27 09:09:48;;;;;;;;;;;;;;;4.45;100.00;101982.47;5065878;28;19928;-76
2022/11/27 09:12:13;;;;;;;;;;;;;;;4.44;100.00;101987.69;5065471;28;19974;-76
2022/11/27 09:14:39;;;;;;;;;;;;;;;4.43;100.00;101981.59;5031518;28;19932;-74
2022/11/27 09:17:04;;;;;;;;;;;;;;;4.44;100.00;101977.22;5062562;28;20378;-74
2022/11/27 09:19:29;;;;;;;;;;;;;;;4.44;100.00;101979.84;5064694;28;19929;-75
2022/11/27 09:21:55;;;;;;;;;;;;;;;4.44;100.00;101977.22;5064286;28;19924;-75
2022/11/27 09:24:20;;;;;;;;;;;;;;;4.44;100.00;101969.34;5063897;28;19920;-75
2022/11/27 09:26:46;;;;;;;;;;;;;;;4.43;100.00;101967.59;5064303;28;20424;-75
2022/11/27 09:29:11;;;;;;;;;;;;;;;4.43;100.00;101962.34;5065485;27;19932;-75
2022/11/27 09:31:36;;;;;;;;;;;;;;;4.43;100.00;101957.13;5065180;28;20064;-75
2022/11/27 09:34:03;;;;;;;;;;;;;;;4.42;100.00;101953.59;5064930;28;19928;-75
2022/11/27 09:36:29;;;;;;;;;;;;;;;4.43;100.00;101958.00;5063441;28;19928;-76
2022/11/27 09:38:54;;;;;;;;;;;;;;;4.43;100.00;101963.25;5063245;28;21030;-76
2022/11/27 09:41:34;;;;;;;;;;;;;;;4.42;100.00;101953.59;5062602;28;20651;-76
2022/11/27 09:44:05;;;;;;;;;;;;;;;4.43;100.00;101960.63;5062731;28;20019;-75
2022/11/27 09:46:31;;;;;;;;;;;;;;;4.43;100.00;101950.13;5063786;28;19950;-75
2022/11/27 09:49:01;;;;;;;;;;;;;;;4.44;100.00;101948.38;5048680;28;20011;-76
2022/11/27 09:51:32;;;;;;;;;;;;;;;4.45;100.00;101957.97;5048577;28;20002;-75
2022/11/27 09:54:10;;;;;;;;;;;;;;;4.47;100.00;101953.63;5062940;28;20030;-75
2022/11/27 09:56:45;;;;;;;;;;;;;;;4.46;100.00;101952.72;5063658;28;19951;-75
2022/11/27 09:59:13;;;;;;;;;;;;;;;4.46;100.00;101952.72;5063645;28;20294;-75
2022/11/27 10:01:38;;;;;;;;;;;;;;;4.49;100.00;101954.47;5051199;28;19995;-75
2022/11/27 10:04:05;;;;;;;;;;;;;;;4.48;100.00;101948.34;5064073;28;21043;-75
2022/11/27 10:06:35;;;;;;;;;;;;;;;4.49;100.00;101949.25;5048877;28;19925;-76
2022/11/27 10:09:20;;;;;;;;;;;;;;;4.50;100.00;101950.97;5062265;28;19928;-75
2022/11/27 10:12:00;;;;;;;;;;;;;;;4.49;100.00;101960.59;5063430;28;19924;-75
2022/11/27 10:14:26;;;;;;;;;;;;;;;4.51;100.00;101944.84;5063400;28;20025;-75
2022/11/27 10:16:53;;;;;;;;;;;;;;;4.52;100.00;101941.34;5063514;28;19927;-75
2022/11/27 10:19:25;;;;;;;;;;;;;;;4.53;100.00;101940.47;5063285;28;19934;-75
2022/11/27 10:21:53;;;;;;;;;;;;;;;4.54;100.00;101939.63;5064662;28;19981;-75
2022/11/27 10:24:38;;;;;;;;;;;;;;;4.55;100.00;101933.50;5063245;28;20011;-75
2022/11/27 10:27:09;;;;;;;;;;;;;;;4.55;100.00;101927.34;5049803;28;19924;-75
2022/11/27 10:29:42;;;;;;;;;;;;;;;4.57;100.00;101923.00;5046634;28;20287;-75
2022/11/27 10:32:22;;;;;;;;;;;;;;;4.56;100.00;101919.50;5063035;28;20395;-75
2022/11/27 10:34:55;;;;;;;;;;;;;;;4.57;100.00;101920.38;5062541;28;20455;-75
2022/11/27 10:37:23;;;;;;;;;;;;;;;4.57;100.00;101910.75;5061637;28;20347;-75
2022/11/27 10:39:49;;;;;;;;;;;;;;;4.57;100.00;101905.50;5062478;28;19932;-75
2022/11/27 10:42:25;;;;;;;;;;;;;;;4.57;100.00;101902.03;5063442;28;20292;-75
2022/11/27 10:44:51;;;;;;;;;;;;;;;4.58;100.00;101898.50;5062746;28;19928;-74
2022/11/27 10:47:18;;;;;;;;;;;;;;;4.59;100.00;101892.38;5045464;28;21451;-76
2022/11/27 10:49:43;;;;;;;;;;;;;;;4.60;100.00;101875.75;5062511;28;20019;-76
2022/11/27 10:52:16;;;;;;;;;;;;;;;4.61;100.00;101886.25;5064118;28;19931;-76
2022/11/27 10:54:58;;;;;;;;;;;;;;;4.63;100.00;101880.97;5051934;28;19939;-76
2022/11/27 10:57:42;;;;;;;;;;;;;;;4.64;100.00;101877.50;5062386;28;19932;-75
2022/11/27 11:00:13;;;;;;;;;;;;;;;4.65;100.00;101886.22;5062896;28;19932;-76
2022/11/27 11:02:39;;;;;;;;;;;;;;;4.66;100.00;101878.38;5063828;28;20019;-76
2022/11/27 11:05:12;;;;;;;;;;;;;;;4.68;100.00;101871.34;5044931;28;19951;-76
2022/11/27 11:07:37;;;;;;;;;;;;;;;4.69;100.00;101862.59;5062542;28;19924;-76
2022/11/27 11:10:04;;;;;;;;;;;;;;;4.70;100.00;101856.50;5027646;28;19934;-76
2022/11/27 11:12:30;;;;;;;;;;;;;;;4.72;100.00;101846.84;5062800;28;20023;-76
2022/11/27 11:14:56;;;;;;;;;;;;;;;4.74;100.00;101850.34;5062676;28;19942;-76
2022/11/27 11:17:36;;;;;;;;;;;;;;;4.79;100.00;101852.06;5034603;28;19924;-76
2022/11/27 11:20:12;;;;;;;;;;;;;;;4.82;100.00;101849.41;5035608;28;19931;-76
2022/11/27 11:22:42;;;;;;;;;;;;;;;4.83;100.00;101848.53;5062554;28;19933;-77
2022/11/27 11:25:12;;;;;;;;;;;;;;;4.83;100.00;101838.94;5037288;28;19925;-76
2022/11/27 11:27:37;;;;;;;;;;;;;;;4.87;100.00;101830.16;5049373;28;19959;-76
2022/11/27 11:30:06;;;;;;;;;;;;;;;4.89;100.00;101824.88;5044107;28;20152;-76
2022/11/27 11:32:32;;;;;;;;;;;;;;;4.91;100.00;101820.53;5062402;28;19932;-76
2022/11/27 11:35:03;;;;;;;;;;;;;;;4.93;100.00;101821.38;5062665;28;19928;-76
2022/11/27 11:37:35;;;;;;;;;;;;;;;4.95;100.00;101822.22;5062530;28;21384;-76
2022/11/27 11:40:08;;;;;;;;;;;;;;;4.98;100.00;101818.72;5050240;28;19981;-76
2022/11/27 11:42:35;;;;;;;;;;;;;;;5.01;100.00;101826.59;5065787;28;20015;-76
2022/11/27 11:45:12;;;;;;;;;;;;;;;5.03;100.00;101824.81;5036729;28;20026;-76
2022/11/27 11:48:03;;;;;;;;;;;;;;;5.07;100.00;101820.41;5054956;28;19974;-76
2022/11/27 11:50:35;;;;;;;;;;;;;;;5.09;100.00;101816.03;5060200;28;19979;-75
2022/11/27 11:53:09;;;;;;;;;;;;;;;5.10;100.00;101815.13;5066947;28;20280;-75
2022/11/27 11:55:37;;;;;;;;;;;;;;;5.11;100.00;101812.50;5064969;28;19928;-75
2022/11/27 11:58:10;;;;;;;;;;;;;;;5.13;100.00;101805.47;5065859;28;19927;-74
2022/11/27 12:00:48;;;;;;;;;;;;;;;5.15;100.00;101809.00;5052915;28;20027;-74
2022/11/27 12:03:17;;;;;;;;;;;;;;;5.17;100.00;101803.69;5052100;28;21533;-75
2022/11/27 12:05:59;;;;;;;;;;;;;;;5.18;100.00;101797.59;5067343;28;19928;-75
2022/11/27 12:08:34;;;;;;;;;;;;;;;5.21;100.00;101786.16;5065824;28;19997;-75
2022/11/27 12:11:15;;;;;;;;;;;;;;;5.22;100.00;101788.78;5064376;28;19977;-75
2022/11/27 12:14:10;;;;;;;;;;;;;;;5.25;100.00;101787.91;5053419;28;19925;-75
2022/11/27 12:16:39;;;;;;;;;;;;;;;5.26;100.00;101773.88;5065963;28;19932;-75
2022/11/27 12:19:20;;;;;;;;;;;;;;;5.26;100.00;101769.50;5052870;28;20458;-74
2022/11/27 12:21:48;;;;;;;;;;;;;;;5.27;100.00;101771.25;5064018;28;19935;-74
2022/11/27 12:24:43;;;;;;;;;;;;;;;5.27;100.00;101758.13;5065470;28;19931;-74
2022/11/27 12:27:10;;;;;;;;;;;;;;;5.29;100.00;101761.59;5034644;28;19966;-75
2022/11/27 12:29:39;;;;;;;;;;;;;;;5.29;100.00;101753.72;5066578;28;19928;-75
2022/11/27 12:32:08;;;;;;;;;;;;;;;5.30;100.00;101755.47;5066682;28;20042;-75
2022/11/27 12:34:39;;;;;;;;;;;;;;;5.30;100.00;101741.47;5066170;28;19932;-75
2022/11/27 12:37:21;;;;;;;;;;;;;;;5.29;100.00;101737.13;5064019;28;19928;-75
2022/11/27 12:40:00;;;;;;;;;;;;;;;5.29;100.00;101722.22;5063795;28;19930;-75
2022/11/27 12:42:25;;;;;;;;;;;;;;;5.29;100.00;101724.84;5052490;28;19928;-75